Kansai — JD3272 — position and weather

sailwx.info

Track history (hours):
 
Tides and Currents Weather Stations Pressure Air Temp Water Temp Dewpoint Dewpoint Depression Visibility Wind Speed Wind Dir Waves Ship Positions

Kansai

Last reported at 2017-Dec-11 17:01 UTC. Time now 2017-Dec-13 11:27 UTC.
Position N 34°34' E 135°27'.

Length 73 m; draft 4.2 m.

Type: Cargo ship. MMSI: 431003134.

Date/timePositionNaut miles runAvg speedWind from/ knotsBaromVisibWave heightAir tempDewpointWater temp
2017-Dec-11 17:01N 34°34' E 135°27'0 0.0
2017-Dec-11 16:30N 34°34' E 135°27'0 0.0
2017-Dec-11 16:00N 34°34' E 135°27'0 0.0
2017-Dec-11 15:30N 34°34' E 135°27'0 0.0
2017-Dec-11 15:01N 34°34' E 135°27'0 0.0
2017-Dec-11 14:30N 34°34' E 135°27'0 0.1
2017-Dec-11 14:01N 34°34' E 135°27'3 5.3
2017-Dec-11 13:31N 34°36' E 135°24'510.3
2017-Dec-11 13:01N 34°36' E 135°18'510.8
2017-Dec-11 12:31N 34°35' E 135°12'611.4
2017-Dec-11 12:00N 34°35' E 135°05'612.5
2017-Dec-11 11:31N 34°37' E 134°58'612.2
2017-Dec-11 11:00N 34°38' E 134°50'611.3
2017-Dec-11 10:30N 34°40' E 134°44'610.8
2017-Dec-11 09:59N 34°42' E 134°37'610.8
2017-Dec-11 09:24N 34°41' E 134°30'96 9.5
2017-Dec-10 23:22N 34°06' E 132°42'410.3
2017-Dec-10 23:00N 34°04' E 132°38'610.4
2017-Dec-10 22:25N 34°02' E 132°31'4 9.4
2017-Dec-10 22:00N 34°02' E 132°27'510.6
2017-Dec-10 21:30N 34°06' E 132°23'510.5
2017-Dec-10 21:01N 34°11' E 132°20'510.0
2017-Dec-10 20:30N 34°16' E 132°22'510.3
2017-Dec-10 20:01N 34°18' E 132°28'5 9.0
2017-Dec-10 19:30N 34°14' E 132°31'1 2.7
2017-Dec-10 19:00N 34°14' E 132°32'0 0.0
2017-Dec-10 18:30N 34°14' E 132°32'0 0.0
2017-Dec-10 18:00N 34°14' E 132°32'0 0.0
2017-Dec-10 17:30N 34°14' E 132°32'0 0.0
2017-Dec-10 17:00N 34°14' E 132°32'0 0.0
2017-Dec-10 16:31N 34°14' E 132°32'0 0.0
2017-Dec-10 16:00N 34°14' E 132°32'0 0.0
2017-Dec-10 15:30N 34°14' E 132°32'0 0.0
2017-Dec-10 15:00N 34°14' E 132°32'0 0.0
2017-Dec-10 14:31N 34°14' E 132°32'0 0.0
2017-Dec-10 14:00N 34°14' E 132°32'0 0.0
2017-Dec-10 13:30N 34°14' E 132°32'0 0.0
2017-Dec-10 13:00N 34°14' E 132°32'0 0.0
2017-Dec-10 12:30N 34°14' E 132°32'0 0.0
2017-Dec-10 12:00N 34°14' E 132°32'0 0.7
2017-Dec-10 11:30N 34°14' E 132°32'0 0.2
2017-Dec-10 11:00N 34°14' E 132°32'0 0.0
2017-Dec-10 10:31N 34°14' E 132°32'0 0.0
2017-Dec-10 10:01N 34°14' E 132°32'0 0.0
2017-Dec-10 09:31N 34°14' E 132°32'0 0.0
2017-Dec-10 09:01N 34°14' E 132°32'0 0.0
2017-Dec-10 08:30N 34°14' E 132°32'0 0.0
2017-Dec-10 08:00N 34°14' E 132°32'0 0.1
2017-Dec-10 07:30N 34°14' E 132°32'0 0.1
2017-Dec-10 07:00N 34°14' E 132°32'0 0.1
2017-Dec-10 06:31N 34°14' E 132°32'0 0.0
2017-Dec-10 06:00N 34°14' E 132°32'0 0.0
2017-Dec-10 05:30N 34°14' E 132°32'0 0.0
2017-Dec-10 05:00N 34°14' E 132°32'0 0.0
2017-Dec-10 04:31N 34°14' E 132°32'0 0.0
2017-Dec-10 04:00N 34°14' E 132°32'0 0.1
2017-Dec-10 03:30N 34°14' E 132°32'0 0.0
2017-Dec-10 03:00N 34°14' E 132°32'0 0.0
2017-Dec-10 02:30N 34°14' E 132°32'0 0.1
2017-Dec-10 02:00N 34°14' E 132°32'0 0.0
2017-Dec-10 01:31N 34°14' E 132°32'0 0.1
2017-Dec-10 01:00N 34°14' E 132°32'0 0.1
2017-Dec-10 00:30N 34°14' E 132°32'0 0.1
2017-Dec-10 00:01N 34°14' E 132°32'0 0.1
2017-Dec-09 23:30N 34°14' E 132°32'0 0.0
2017-Dec-09 23:00N 34°14' E 132°32'0 0.0
2017-Dec-09 22:30N 34°14' E 132°32'0 0.0
2017-Dec-09 22:00N 34°14' E 132°32'0 0.1
2017-Dec-09 21:30N 34°14' E 132°32'0 0.1
2017-Dec-09 21:01N 34°14' E 132°32'0 0.0
2017-Dec-09 20:30N 34°14' E 132°32'0 0.0
2017-Dec-09 20:00N 34°14' E 132°32'0 0.0
2017-Dec-09 19:30N 34°14' E 132°32'0 0.0
2017-Dec-09 19:00N 34°14' E 132°32'0 0.1
2017-Dec-09 18:31N 34°14' E 132°32'0 0.1
2017-Dec-09 18:00N 34°14' E 132°32'0 0.0
2017-Dec-09 17:30N 34°14' E 132°32'0 0.1
2017-Dec-09 17:00N 34°14' E 132°32'0 0.0
2017-Dec-09 16:30N 34°14' E 132°32'0 0.0
2017-Dec-09 16:00N 34°14' E 132°32'0 0.0
2017-Dec-09 15:30N 34°14' E 132°32'1 1.4
2017-Dec-09 15:01N 34°14' E 132°31'5 9.5
2017-Dec-09 14:31N 34°18' E 132°29'611.5
2017-Dec-09 14:00N 34°16' E 132°22'510.9
2017-Dec-09 13:30N 34°11' E 132°20'611.8
2017-Dec-09 12:57N 34°06' E 132°25'811.8
2017-Dec-09 12:17N 34°00' E 132°31'710.4
2017-Dec-09 11:39N 33°54' E 132°28'611.1
2017-Dec-09 11:07N 33°50' E 132°23'210.3
2017-Dec-09 10:57N 33°50' E 132°21'811.1
2017-Dec-09 10:16N 33°49' E 132°12'311.1
2017-Dec-09 09:59N 33°48' E 132°09'1210.8
2017-Dec-09 08:54N 33°45' E 131°55'512.0
2017-Dec-09 08:30N 33°46' E 131°49'612.3
2017-Dec-09 08:00N 33°48' E 131°42'612.2
2017-Dec-09 07:31N 33°49' E 131°35'612.1
2017-Dec-09 07:00N 33°50' E 131°28'612.2
2017-Dec-09 06:30N 33°51' E 131°21'612.1
2017-Dec-09 06:01N 33°52' E 131°14'611.7
2017-Dec-09 05:30N 33°53' E 131°07'611.3
2017-Dec-09 05:01N 33°52' E 130°60'1 1.7
2017-Dec-09 04:31N 33°53' E 130°60'0 0.0
2017-Dec-09 04:00N 33°53' E 130°60'0 0.0
2017-Dec-09 03:30N 33°53' E 130°60'0 0.0
2017-Dec-09 03:00N 33°53' E 130°60'0 0.0
2017-Dec-09 02:30N 33°53' E 130°60'0 0.0
2017-Dec-09 02:00N 33°53' E 130°60'0 0.0
2017-Dec-09 01:30N 33°53' E 130°60'0 0.0
2017-Dec-09 01:00N 33°53' E 130°60'0 0.0
2017-Dec-09 00:30N 33°53' E 130°60'0 0.0
2017-Dec-09 00:00N 33°53' E 130°60'0 0.0
2017-Dec-08 23:30N 33°53' E 130°60'0 0.0
2017-Dec-08 23:00N 33°53' E 130°60'0 0.0
2017-Dec-08 22:31N 33°53' E 130°60'0 0.0
2017-Dec-08 22:00N 33°53' E 130°60'0 0.0
2017-Dec-08 21:30N 33°53' E 130°60'0 0.0
2017-Dec-08 21:00N 33°53' E 130°60'0 0.0
2017-Dec-08 20:30N 33°53' E 130°60'0 0.0
2017-Dec-08 20:01N 33°53' E 130°60'0 0.0
2017-Dec-08 19:30N 33°53' E 130°60'0 0.0
2017-Dec-08 19:00N 33°53' E 130°60'0 0.0
2017-Dec-08 18:31N 33°53' E 130°60'0 0.0
2017-Dec-08 18:00N 33°53' E 130°60'0 0.0
2017-Dec-08 17:30N 33°53' E 130°60'0 0.0
2017-Dec-08 17:00N 33°53' E 130°60'0 0.0
2017-Dec-08 16:30N 33°53' E 130°60'0 0.0
2017-Dec-08 16:00N 33°53' E 130°60'0 0.0
2017-Dec-08 15:30N 33°53' E 130°60'0 0.0
2017-Dec-08 15:00N 33°53' E 130°60'0 0.0
2017-Dec-08 14:30N 33°53' E 130°60'0 0.0
2017-Dec-08 14:00N 33°53' E 130°60'0 0.0
2017-Dec-08 13:31N 33°53' E 130°60'0 0.0
2017-Dec-08 13:01N 33°53' E 130°60'0 0.0
2017-Dec-08 12:30N 33°53' E 130°60'0 0.0
2017-Dec-08 12:01N 33°53' E 130°60'0 0.0
2017-Dec-08 11:30N 33°53' E 130°60'0 0.0
2017-Dec-08 11:01N 33°53' E 130°60'0 0.0
2017-Dec-08 10:31N 33°53' E 130°60'0 0.0
2017-Dec-08 10:00N 33°53' E 130°60'0 0.0
2017-Dec-08 09:30N 33°53' E 130°60'0 0.0
2017-Dec-08 09:00N 33°53' E 130°60'0 0.0
2017-Dec-08 08:30N 33°53' E 130°60'0 0.0
2017-Dec-08 08:00N 33°53' E 130°60'0 0.0
2017-Dec-08 07:30N 33°53' E 130°60'0 0.0
2017-Dec-08 07:00N 33°53' E 130°60'0 0.0
2017-Dec-08 06:30N 33°53' E 130°60'0 0.0
2017-Dec-08 06:00N 33°53' E 130°60'0 0.0
2017-Dec-08 05:30N 33°53' E 130°60'0 0.8
2017-Dec-08 05:01N 33°53' E 130°60'4 7.8
2017-Dec-08 04:31N 33°53' E 131°04'510.5
2017-Dec-08 04:00N 33°52' E 131°10'510.4
2017-Dec-08 03:30N 33°52' E 131°17'510.5
2017-Dec-08 03:00N 33°54' E 131°22'611.1
2017-Dec-08 02:30N 33°57' E 131°28'610.8
2017-Dec-08 02:00N 34°00' E 131°34'1 1.3
2017-Dec-08 01:30N 34°01' E 131°34'0 0.0
2017-Dec-08 01:00N 34°01' E 131°34'0 0.0
2017-Dec-08 00:30N 34°01' E 131°34'0 0.0
2017-Dec-08 00:00N 34°01' E 131°34'0 0.0
2017-Dec-07 23:26N 34°01' E 131°34'0 0.0
2017-Dec-07 22:57N 34°01' E 131°34'1 1.9
2017-Dec-07 22:30N 34°00' E 131°33'2 4.8
2017-Dec-07 22:00N 33°59' E 131°36'0 0.2
2017-Dec-07 21:30N 33°59' E 131°36'0 0.0
2017-Dec-07 21:00N 33°59' E 131°36'0 0.0
2017-Dec-07 20:30N 33°59' E 131°36'0 0.0
2017-Dec-07 20:00N 33°59' E 131°36'0 0.0
2017-Dec-07 19:30N 33°59' E 131°36'0 0.0
2017-Dec-07 19:00N 33°59' E 131°36'0 0.0
2017-Dec-07 18:30N 33°59' E 131°36'0 0.0
2017-Dec-07 18:00N 33°59' E 131°36'0 0.0
2017-Dec-07 17:30N 33°59' E 131°36'0 0.0
2017-Dec-07 17:00N 33°59' E 131°36'0 0.0
2017-Dec-07 16:31N 33°59' E 131°36'0 0.0
2017-Dec-07 16:00N 33°59' E 131°36'0 0.0
2017-Dec-07 15:30N 33°59' E 131°36'0 0.0
2017-Dec-07 15:00N 33°59' E 131°36'0 0.0
2017-Dec-07 14:30N 33°59' E 131°36'0 0.1
2017-Dec-07 14:00N 33°59' E 131°36'0 0.0
2017-Dec-07 13:30N 33°59' E 131°36'0 0.0
2017-Dec-07 13:00N 33°59' E 131°36'2 4.3
2017-Dec-07 12:29N 33°57' E 131°37'510.8
2017-Dec-07 12:00N 33°53' E 131°42'811.2
2017-Dec-07 11:19N 33°49' E 131°50'311.0
2017-Dec-07 11:00N 33°48' E 131°53'710.6
2017-Dec-07 10:22N 33°46' E 132°01'3011.1
2017-Dec-07 07:43N 33°54' E 132°35'312.1
2017-Dec-07 07:26N 33°56' E 132°39'611.9
2017-Dec-07 06:56N 33°60' E 132°44'7110.4
2017-Dec-07 00:08N 34°27' E 134°03'1412.0
2017-Dec-06 23:00N 34°25' E 134°20'511.1
2017-Dec-06 22:30N 34°27' E 134°26'711.1
2017-Dec-06 21:55N 34°31' E 134°32'410.8
2017-Dec-06 21:30N 34°34' E 134°36'510.7
2017-Dec-06 21:00N 34°38' E 134°41'  
2017-Dec-04 10:24N 33°57' E 135°02'171 9.4
2017-Dec-03 16:11N 34°34' E 138°25'410.2
2017-Dec-03 15:44N 34°34' E 138°30'410.2
2017-Dec-03 15:23N 34°35' E 138°34'44 9.6
2017-Dec-03 10:49N 34°56' E 139°21'410.0
2017-Dec-03 10:25N 34°59' E 139°24'510.0
2017-Dec-03 09:58N 35°01' E 139°29'5 9.8
2017-Dec-03 09:30N 35°03' E 139°34'510.4
2017-Dec-03 09:00N 35°06' E 139°40'510.4
2017-Dec-03 08:30N 35°09' E 139°44'611.4
2017-Dec-03 08:00N 35°14' E 139°46'611.5
2017-Dec-03 07:31N 35°19' E 139°43'510.6
2017-Dec-03 07:00N 35°25' E 139°43'511.0
2017-Dec-03 06:31N 35°28' E 139°49'711.4
2017-Dec-03 05:56N 35°33' E 139°54'511.2
2017-Dec-03 05:28N 35°37' E 139°58'3 0.5
2017-Dec-02 22:07N 35°41' E 139°58'1 5.0
2017-Dec-02 21:59N 35°40' E 139°57'2 4.7
2017-Dec-02 21:28N 35°38' E 139°58'3 5.4
2017-Dec-02 21:00N 35°35' E 139°57'3 5.6
2017-Dec-02 20:30N 35°33' E 139°55'4 7.8
2017-Dec-02 20:01N 35°30' E 139°52'5 9.3
2017-Dec-02 19:30N 35°26' E 139°49'510.0
2017-Dec-02 19:01N 35°22' E 139°45'5 9.6
2017-Dec-02 18:30N 35°17' E 139°45'510.2
2017-Dec-02 18:00N 35°12' E 139°47'510.2
2017-Dec-02 17:30N 35°07' E 139°45'5 9.8
2017-Dec-02 17:00N 35°03' E 139°42'510.5
2017-Dec-02 16:30N 34°60' E 139°37'812.0
2017-Dec-02 15:52N 34°56' E 139°29'612.6
2017-Dec-02 15:26N 34°53' E 139°23'612.8
2017-Dec-02 14:59N 34°49' E 139°18'611.9
2017-Dec-02 14:27N 34°45' E 139°12'510.9
2017-Dec-02 13:57N 34°42' E 139°07'511.5
2017-Dec-02 13:30N 34°39' E 139°02'611.7
2017-Dec-02 13:00N 34°35' E 138°56'712.1
2017-Dec-02 12:27N 34°34' E 138°48'511.8
2017-Dec-02 12:00N 34°35' E 138°41'912.0
2017-Dec-02 11:15N 34°35' E 138°30'311.7
2017-Dec-02 10:58N 34°35' E 138°26'611.5
2017-Dec-02 10:29N 34°34' E 138°20'611.5
2017-Dec-02 09:56N 34°34' E 138°12'  
Track history (hours):
 
Tides and Currents Weather Stations Pressure Air Temp Water Temp Dewpoint Dewpoint Depression Visibility Wind Speed Wind Dir Waves Ship Positions

Kansai

Last reported at 2017-Dec-11 17:01 UTC. Time now 2017-Dec-13 11:27 UTC.
Position N 34°34' E 135°27'.

Length 73 m; draft 4.2 m.

Type: Cargo ship. MMSI: 431003134.

Date/timePositionNaut miles runAvg speedWind from/ knotsBaromVisibWave heightAir tempDewpointWater temp
2017-Dec-11 17:01N 34°34' E 135°27'0 0.0
2017-Dec-11 16:30N 34°34' E 135°27'0 0.0
2017-Dec-11 16:00N 34°34' E 135°27'0 0.0
2017-Dec-11 15:30N 34°34' E 135°27'0 0.0
2017-Dec-11 15:01N 34°34' E 135°27'0 0.0
2017-Dec-11 14:30N 34°34' E 135°27'0 0.1
2017-Dec-11 14:01N 34°34' E 135°27'3 5.3
2017-Dec-11 13:31N 34°36' E 135°24'510.3
2017-Dec-11 13:01N 34°36' E 135°18'510.8
2017-Dec-11 12:31N 34°35' E 135°12'611.4
2017-Dec-11 12:00N 34°35' E 135°05'612.5
2017-Dec-11 11:31N 34°37' E 134°58'612.2
2017-Dec-11 11:00N 34°38' E 134°50'611.3
2017-Dec-11 10:30N 34°40' E 134°44'610.8
2017-Dec-11 09:59N 34°42' E 134°37'610.8
2017-Dec-11 09:24N 34°41' E 134°30'96 9.5
2017-Dec-10 23:22N 34°06' E 132°42'410.3
2017-Dec-10 23:00N 34°04' E 132°38'610.4
2017-Dec-10 22:25N 34°02' E 132°31'4 9.4
2017-Dec-10 22:00N 34°02' E 132°27'510.6
2017-Dec-10 21:30N 34°06' E 132°23'510.5
2017-Dec-10 21:01N 34°11' E 132°20'510.0
2017-Dec-10 20:30N 34°16' E 132°22'510.3
2017-Dec-10 20:01N 34°18' E 132°28'5 9.0
2017-Dec-10 19:30N 34°14' E 132°31'1 2.7
2017-Dec-10 19:00N 34°14' E 132°32'0 0.0
2017-Dec-10 18:30N 34°14' E 132°32'0 0.0
2017-Dec-10 18:00N 34°14' E 132°32'0 0.0
2017-Dec-10 17:30N 34°14' E 132°32'0 0.0
2017-Dec-10 17:00N 34°14' E 132°32'0 0.0
2017-Dec-10 16:31N 34°14' E 132°32'0 0.0
2017-Dec-10 16:00N 34°14' E 132°32'0 0.0
2017-Dec-10 15:30N 34°14' E 132°32'0 0.0
2017-Dec-10 15:00N 34°14' E 132°32'0 0.0
2017-Dec-10 14:31N 34°14' E 132°32'0 0.0
2017-Dec-10 14:00N 34°14' E 132°32'0 0.0
2017-Dec-10 13:30N 34°14' E 132°32'0 0.0
2017-Dec-10 13:00N 34°14' E 132°32'0 0.0
2017-Dec-10 12:30N 34°14' E 132°32'0 0.0
2017-Dec-10 12:00N 34°14' E 132°32'0 0.7
2017-Dec-10 11:30N 34°14' E 132°32'0 0.2
2017-Dec-10 11:00N 34°14' E 132°32'0 0.0
2017-Dec-10 10:31N 34°14' E 132°32'0 0.0
2017-Dec-10 10:01N 34°14' E 132°32'0 0.0
2017-Dec-10 09:31N 34°14' E 132°32'0 0.0
2017-Dec-10 09:01N 34°14' E 132°32'0 0.0
2017-Dec-10 08:30N 34°14' E 132°32'0 0.0
2017-Dec-10 08:00N 34°14' E 132°32'0 0.1
2017-Dec-10 07:30N 34°14' E 132°32'0 0.1
2017-Dec-10 07:00N 34°14' E 132°32'0 0.1
2017-Dec-10 06:31N 34°14' E 132°32'0 0.0
2017-Dec-10 06:00N 34°14' E 132°32'0 0.0
2017-Dec-10 05:30N 34°14' E 132°32'0 0.0
2017-Dec-10 05:00N 34°14' E 132°32'0 0.0
2017-Dec-10 04:31N 34°14' E 132°32'0 0.0
2017-Dec-10 04:00N 34°14' E 132°32'0 0.1
2017-Dec-10 03:30N 34°14' E 132°32'0 0.0
2017-Dec-10 03:00N 34°14' E 132°32'0 0.0
2017-Dec-10 02:30N 34°14' E 132°32'0 0.1
2017-Dec-10 02:00N 34°14' E 132°32'0 0.0
2017-Dec-10 01:31N 34°14' E 132°32'0 0.1
2017-Dec-10 01:00N 34°14' E 132°32'0 0.1
2017-Dec-10 00:30N 34°14' E 132°32'0 0.1
2017-Dec-10 00:01N 34°14' E 132°32'0 0.1
2017-Dec-09 23:30N 34°14' E 132°32'0 0.0
2017-Dec-09 23:00N 34°14' E 132°32'0 0.0
2017-Dec-09 22:30N 34°14' E 132°32'0 0.0
2017-Dec-09 22:00N 34°14' E 132°32'0 0.1
2017-Dec-09 21:30N 34°14' E 132°32'0 0.1
2017-Dec-09 21:01N 34°14' E 132°32'0 0.0
2017-Dec-09 20:30N 34°14' E 132°32'0 0.0
2017-Dec-09 20:00N 34°14' E 132°32'0 0.0
2017-Dec-09 19:30N 34°14' E 132°32'0 0.0
2017-Dec-09 19:00N 34°14' E 132°32'0 0.1
2017-Dec-09 18:31N 34°14' E 132°32'0 0.1
2017-Dec-09 18:00N 34°14' E 132°32'0 0.0
2017-Dec-09 17:30N 34°14' E 132°32'0 0.1
2017-Dec-09 17:00N 34°14' E 132°32'0 0.0
2017-Dec-09 16:30N 34°14' E 132°32'0 0.0
2017-Dec-09 16:00N 34°14' E 132°32'0 0.0
2017-Dec-09 15:30N 34°14' E 132°32'1 1.4
2017-Dec-09 15:01N 34°14' E 132°31'5 9.5
2017-Dec-09 14:31N 34°18' E 132°29'611.5
2017-Dec-09 14:00N 34°16' E 132°22'510.9
2017-Dec-09 13:30N 34°11' E 132°20'611.8
2017-Dec-09 12:57N 34°06' E 132°25'811.8
2017-Dec-09 12:17N 34°00' E 132°31'710.4
2017-Dec-09 11:39N 33°54' E 132°28'611.1
2017-Dec-09 11:07N 33°50' E 132°23'210.3
2017-Dec-09 10:57N 33°50' E 132°21'811.1
2017-Dec-09 10:16N 33°49' E 132°12'311.1
2017-Dec-09 09:59N 33°48' E 132°09'1210.8
2017-Dec-09 08:54N 33°45' E 131°55'512.0
2017-Dec-09 08:30N 33°46' E 131°49'612.3
2017-Dec-09 08:00N 33°48' E 131°42'612.2
2017-Dec-09 07:31N 33°49' E 131°35'612.1
2017-Dec-09 07:00N 33°50' E 131°28'612.2
2017-Dec-09 06:30N 33°51' E 131°21'612.1
2017-Dec-09 06:01N 33°52' E 131°14'611.7
2017-Dec-09 05:30N 33°53' E 131°07'611.3
2017-Dec-09 05:01N 33°52' E 130°60'1 1.7
2017-Dec-09 04:31N 33°53' E 130°60'0 0.0
2017-Dec-09 04:00N 33°53' E 130°60'0 0.0
2017-Dec-09 03:30N 33°53' E 130°60'0 0.0
2017-Dec-09 03:00N 33°53' E 130°60'0 0.0
2017-Dec-09 02:30N 33°53' E 130°60'0 0.0
2017-Dec-09 02:00N 33°53' E 130°60'0 0.0
2017-Dec-09 01:30N 33°53' E 130°60'0 0.0
2017-Dec-09 01:00N 33°53' E 130°60'0 0.0
2017-Dec-09 00:30N 33°53' E 130°60'0 0.0
2017-Dec-09 00:00N 33°53' E 130°60'0 0.0
2017-Dec-08 23:30N 33°53' E 130°60'0 0.0
2017-Dec-08 23:00N 33°53' E 130°60'0 0.0
2017-Dec-08 22:31N 33°53' E 130°60'0 0.0
2017-Dec-08 22:00N 33°53' E 130°60'0 0.0
2017-Dec-08 21:30N 33°53' E 130°60'0 0.0
2017-Dec-08 21:00N 33°53' E 130°60'0 0.0
2017-Dec-08 20:30N 33°53' E 130°60'0 0.0
2017-Dec-08 20:01N 33°53' E 130°60'0 0.0
2017-Dec-08 19:30N 33°53' E 130°60'0 0.0
2017-Dec-08 19:00N 33°53' E 130°60'0 0.0
2017-Dec-08 18:31N 33°53' E 130°60'0 0.0
2017-Dec-08 18:00N 33°53' E 130°60'0 0.0
2017-Dec-08 17:30N 33°53' E 130°60'0 0.0
2017-Dec-08 17:00N 33°53' E 130°60'0 0.0
2017-Dec-08 16:30N 33°53' E 130°60'0 0.0
2017-Dec-08 16:00N 33°53' E 130°60'0 0.0
2017-Dec-08 15:30N 33°53' E 130°60'0 0.0
2017-Dec-08 15:00N 33°53' E 130°60'0 0.0
2017-Dec-08 14:30N 33°53' E 130°60'0 0.0
2017-Dec-08 14:00N 33°53' E 130°60'0 0.0
2017-Dec-08 13:31N 33°53' E 130°60'0 0.0
2017-Dec-08 13:01N 33°53' E 130°60'0 0.0
2017-Dec-08 12:30N 33°53' E 130°60'0 0.0
2017-Dec-08 12:01N 33°53' E 130°60'0 0.0
2017-Dec-08 11:30N 33°53' E 130°60'0 0.0
2017-Dec-08 11:01N 33°53' E 130°60'0 0.0
2017-Dec-08 10:31N 33°53' E 130°60'0 0.0
2017-Dec-08 10:00N 33°53' E 130°60'0 0.0
2017-Dec-08 09:30N 33°53' E 130°60'0 0.0
2017-Dec-08 09:00N 33°53' E 130°60'0 0.0
2017-Dec-08 08:30N 33°53' E 130°60'0 0.0
2017-Dec-08 08:00N 33°53' E 130°60'0 0.0
2017-Dec-08 07:30N 33°53' E 130°60'0 0.0
2017-Dec-08 07:00N 33°53' E 130°60'0 0.0
2017-Dec-08 06:30N 33°53' E 130°60'0 0.0
2017-Dec-08 06:00N 33°53' E 130°60'0 0.0
2017-Dec-08 05:30N 33°53' E 130°60'0 0.8
2017-Dec-08 05:01N 33°53' E 130°60'4 7.8
2017-Dec-08 04:31N 33°53' E 131°04'510.5
2017-Dec-08 04:00N 33°52' E 131°10'510.4
2017-Dec-08 03:30N 33°52' E 131°17'510.5
2017-Dec-08 03:00N 33°54' E 131°22'611.1
2017-Dec-08 02:30N 33°57' E 131°28'610.8
2017-Dec-08 02:00N 34°00' E 131°34'1 1.3
2017-Dec-08 01:30N 34°01' E 131°34'0 0.0
2017-Dec-08 01:00N 34°01' E 131°34'0 0.0
2017-Dec-08 00:30N 34°01' E 131°34'0 0.0
2017-Dec-08 00:00N 34°01' E 131°34'0 0.0
2017-Dec-07 23:26N 34°01' E 131°34'0 0.0
2017-Dec-07 22:57N 34°01' E 131°34'1 1.9
2017-Dec-07 22:30N 34°00' E 131°33'2 4.8
2017-Dec-07 22:00N 33°59' E 131°36'0 0.2
2017-Dec-07 21:30N 33°59' E 131°36'0 0.0
2017-Dec-07 21:00N 33°59' E 131°36'0 0.0
2017-Dec-07 20:30N 33°59' E 131°36'0 0.0
2017-Dec-07 20:00N 33°59' E 131°36'0 0.0
2017-Dec-07 19:30N 33°59' E 131°36'0 0.0
2017-Dec-07 19:00N 33°59' E 131°36'0 0.0
2017-Dec-07 18:30N 33°59' E 131°36'0 0.0
2017-Dec-07 18:00N 33°59' E 131°36'0 0.0
2017-Dec-07 17:30N 33°59' E 131°36'0 0.0
2017-Dec-07 17:00N 33°59' E 131°36'0 0.0
2017-Dec-07 16:31N 33°59' E 131°36'0 0.0
2017-Dec-07 16:00N 33°59' E 131°36'0 0.0
2017-Dec-07 15:30N 33°59' E 131°36'0 0.0
2017-Dec-07 15:00N 33°59' E 131°36'0 0.0
2017-Dec-07 14:30N 33°59' E 131°36'0 0.1
2017-Dec-07 14:00N 33°59' E 131°36'0 0.0
2017-Dec-07 13:30N 33°59' E 131°36'0 0.0
2017-Dec-07 13:00N 33°59' E 131°36'2 4.3
2017-Dec-07 12:29N 33°57' E 131°37'510.8
2017-Dec-07 12:00N 33°53' E 131°42'811.2
2017-Dec-07 11:19N 33°49' E 131°50'311.0
2017-Dec-07 11:00N 33°48' E 131°53'710.6
2017-Dec-07 10:22N 33°46' E 132°01'3011.1
2017-Dec-07 07:43N 33°54' E 132°35'312.1
2017-Dec-07 07:26N 33°56' E 132°39'611.9
2017-Dec-07 06:56N 33°60' E 132°44'7110.4
2017-Dec-07 00:08N 34°27' E 134°03'1412.0
2017-Dec-06 23:00N 34°25' E 134°20'511.1
2017-Dec-06 22:30N 34°27' E 134°26'711.1
2017-Dec-06 21:55N 34°31' E 134°32'410.8
2017-Dec-06 21:30N 34°34' E 134°36'510.7
2017-Dec-06 21:00N 34°38' E 134°41'  
2017-Dec-04 10:24N 33°57' E 135°02'171 9.4
2017-Dec-03 16:11N 34°34' E 138°25'410.2
2017-Dec-03 15:44N 34°34' E 138°30'410.2
2017-Dec-03 15:23N 34°35' E 138°34'44 9.6
2017-Dec-03 10:49N 34°56' E 139°21'410.0
2017-Dec-03 10:25N 34°59' E 139°24'510.0
2017-Dec-03 09:58N 35°01' E 139°29'5 9.8
2017-Dec-03 09:30N 35°03' E 139°34'510.4
2017-Dec-03 09:00N 35°06' E 139°40'510.4
2017-Dec-03 08:30N 35°09' E 139°44'611.4
2017-Dec-03 08:00N 35°14' E 139°46'611.5
2017-Dec-03 07:31N 35°19' E 139°43'510.6
2017-Dec-03 07:00N 35°25' E 139°43'511.0
2017-Dec-03 06:31N 35°28' E 139°49'711.4
2017-Dec-03 05:56N 35°33' E 139°54'511.2
2017-Dec-03 05:28N 35°37' E 139°58'3 0.5
2017-Dec-02 22:07N 35°41' E 139°58'1 5.0
2017-Dec-02 21:59N 35°40' E 139°57'2 4.7
2017-Dec-02 21:28N 35°38' E 139°58'3 5.4
2017-Dec-02 21:00N 35°35' E 139°57'3 5.6
2017-Dec-02 20:30N 35°33' E 139°55'4 7.8
2017-Dec-02 20:01N 35°30' E 139°52'5 9.3
2017-Dec-02 19:30N 35°26' E 139°49'510.0
2017-Dec-02 19:01N 35°22' E 139°45'5 9.6
2017-Dec-02 18:30N 35°17' E 139°45'510.2
2017-Dec-02 18:00N 35°12' E 139°47'510.2
2017-Dec-02 17:30N 35°07' E 139°45'5 9.8
2017-Dec-02 17:00N 35°03' E 139°42'510.5
2017-Dec-02 16:30N 34°60' E 139°37'812.0
2017-Dec-02 15:52N 34°56' E 139°29'612.6
2017-Dec-02 15:26N 34°53' E 139°23'612.8
2017-Dec-02 14:59N 34°49' E 139°18'611.9
2017-Dec-02 14:27N 34°45' E 139°12'510.9
2017-Dec-02 13:57N 34°42' E 139°07'511.5
2017-Dec-02 13:30N 34°39' E 139°02'611.7
2017-Dec-02 13:00N 34°35' E 138°56'712.1
2017-Dec-02 12:27N 34°34' E 138°48'511.8
2017-Dec-02 12:00N 34°35' E 138°41'912.0
2017-Dec-02 11:15N 34°35' E 138°30'311.7
2017-Dec-02 10:58N 34°35' E 138°26'611.5
2017-Dec-02 10:29N 34°34' E 138°20'611.5
2017-Dec-02 09:56N 34°34' E 138°12'  

Dump ship's entire track history